Other Surface Observations
Issued by NWS Missoula, MT

Home | Current Version | Previous Version | Text Only | Print | Product List | Glossary On
Versions: 1 2 3 4 5 6 7 8 9 10 11 12 13 14 15 16 17 18 19 20 21 22 23 24 25 26 27 28 29 30 31 32 33 34 35 36 37 38 39 40 41 42 43 44 45 46 47 48 49 50
000
SXUS55 KMSO 042243
OSOMSO
MONTANA AWOS SUMMARY
NATIONAL WEATHER SERVICE MISSOULA MT
443 PM MDT TUE AUG 4 2015

Montana AWOS Reports

LAUREL      |K6S8 042235Z AUTO 00000KT 25SM 24/11 A2999 RMK AO1 T02440111
TWIN BRIDGES|K7S1 042235Z AUTO 02011G17KT 40SM 28/06 A2998 RMK AO1 T02830056
ROUNDUP     |KRPX 042235Z AUTO 28012G18KT 40SM 23/11 A2988 RMK AO1 T02330111
MALTA       |KM75 042235Z AUTO 24013G19KT 40SM 28/12 A2984 RMK AO1 T02830117




USA.gov is the U.S. government's official web portal to all federal, state and local government web resources and services.